createdAt,value
2022-12-10T00:00:37.766Z,12.17
2022-12-10T00:03:05.280Z,11.73
2022-12-10T00:05:35.400Z,11.63
2022-12-10T00:08:02.952Z,11.17
2022-12-10T00:10:30.385Z,11.23
2022-12-10T00:12:57.796Z,11.67
2022-12-10T00:15:25.222Z,11.33
2022-12-10T00:17:52.553Z,12.27
2022-12-10T00:20:19.991Z,11.93
2022-12-10T00:22:47.364Z,12.60
2022-12-10T00:25:14.733Z,12.43
2022-12-10T00:27:41.998Z,11.23
2022-12-10T00:30:10.137Z,10.17
2022-12-10T00:32:37.917Z,11.50
2022-12-10T00:35:05.727Z,10.23
2022-12-10T00:37:33.076Z,10.00
2022-12-10T00:40:00.844Z,9.10
2022-12-10T00:42:28.142Z,9.57
2022-12-10T00:44:55.503Z,10.67
2022-12-10T00:47:22.799Z,10.57
2022-12-10T00:49:50.161Z,10.53
2022-12-10T00:52:17.638Z,11.03
2022-12-10T00:54:45.014Z,12.90
2022-12-10T00:57:12.448Z,12.43
2022-12-10T00:59:39.891Z,10.77
2022-12-10T01:02:07.322Z,10.93
2022-12-10T01:04:34.810Z,9.43
2022-12-10T01:07:05.578Z,10.97
2022-12-10T01:09:35.629Z,11.30
2022-12-10T01:12:04.117Z,9.70
2022-12-10T01:14:32.889Z,10.03
2022-12-10T01:17:03.767Z,10.73
2022-12-10T01:19:32.324Z,10.17
2022-12-10T01:21:59.966Z,10.63
2022-12-10T01:24:28.729Z,11.67
2022-12-10T01:26:56.327Z,10.67
2022-12-10T01:29:24.356Z,11.30
2022-12-10T01:31:55.412Z,15.93
2022-12-10T01:34:23.118Z,16.00
2022-12-10T01:36:51.559Z,21.00
2022-12-10T01:39:19.812Z,12.27
2022-12-10T01:41:49.323Z,16.37
2022-12-10T01:44:16.659Z,16.97
2022-12-10T01:46:45.107Z,13.40
2022-12-10T01:49:19.961Z,22.33
2022-12-10T01:51:48.872Z,12.80
2022-12-10T01:54:21.662Z,13.50
2022-12-10T01:56:52.082Z,12.87
2022-12-10T01:59:19.836Z,13.10
2022-12-10T02:01:54.292Z,13.63
2022-12-10T02:04:21.677Z,13.07
2022-12-10T02:07:08.497Z,13.33
2022-12-10T02:09:41.824Z,12.87
2022-12-10T02:12:27.859Z,13.43
2022-12-10T02:14:58.063Z,12.30
2022-12-10T02:17:30.974Z,11.97
2022-12-10T02:20:01.103Z,12.03
2022-12-10T02:22:33.440Z,12.17
2022-12-10T02:25:01.843Z,11.77
2022-12-10T02:27:32.041Z,11.63
2022-12-10T02:29:59.960Z,11.53
2022-12-10T02:32:31.959Z,11.90
2022-12-10T02:35:04.762Z,12.17
2022-12-10T02:37:41.022Z,12.07
2022-12-10T02:40:11.399Z,11.37
2022-12-10T02:42:40.408Z,11.27
2022-12-10T02:45:09.000Z,11.67
2022-12-10T02:47:37.025Z,10.50
2022-12-10T02:50:05.161Z,10.83
2022-12-10T02:52:32.697Z,10.13
2022-12-10T02:55:00.067Z,10.30
2022-12-10T02:57:27.425Z,10.10
2022-12-10T03:00:17.687Z,9.37
2022-12-10T03:03:01.136Z,9.87
2022-12-10T03:05:28.561Z,9.53
2022-12-10T03:08:07.074Z,9.97
2022-12-10T03:10:41.912Z,9.97
2022-12-10T03:13:11.600Z,9.90
2022-12-10T03:15:40.572Z,9.53
2022-12-10T03:18:08.922Z,9.77
2022-12-10T03:20:39.172Z,9.17
2022-12-10T03:23:09.123Z,9.10
2022-12-10T03:25:37.195Z,9.10
2022-12-10T03:28:04.879Z,10.10
2022-12-10T03:30:34.081Z,11.07
2022-12-10T03:33:02.339Z,10.73
2022-12-10T03:35:29.817Z,9.33
2022-12-10T03:37:57.524Z,9.70
2022-12-10T03:40:25.840Z,9.57
2022-12-10T03:42:53.361Z,8.70
2022-12-10T03:45:20.848Z,7.57
2022-12-10T03:47:50.391Z,7.43
2022-12-10T03:50:17.983Z,7.70
2022-12-10T03:52:45.332Z,7.63
2022-12-10T03:55:13.038Z,7.17
2022-12-10T03:57:41.320Z,7.20
2022-12-10T04:00:09.350Z,7.60
2022-12-10T04:02:36.942Z,7.27
2022-12-10T04:05:06.167Z,6.90
2022-12-10T04:07:33.481Z,6.50
2022-12-10T04:10:00.921Z,7.73
2022-12-10T04:12:28.314Z,8.67
2022-12-10T04:15:14.219Z,9.13
2022-12-10T04:17:41.484Z,8.23
2022-12-10T04:20:29.070Z,8.40
2022-12-10T04:23:14.922Z,7.93
2022-12-10T04:26:00.921Z,7.60
2022-12-10T04:28:28.619Z,7.17
2022-12-10T04:30:56.027Z,7.70
2022-12-10T04:33:23.552Z,7.33
2022-12-10T04:35:50.907Z,7.53
2022-12-10T04:38:18.187Z,8.00
2022-12-10T04:40:45.457Z,8.53
2022-12-10T04:43:12.761Z,8.00
2022-12-10T04:45:40.120Z,7.90
2022-12-10T04:48:07.416Z,8.00
2022-12-10T04:50:35.240Z,7.53
2022-12-10T04:53:02.636Z,8.10
2022-12-10T04:55:29.924Z,8.20
2022-12-10T04:57:58.401Z,7.53
2022-12-10T05:00:26.202Z,8.83
2022-12-10T05:02:53.597Z,8.07
2022-12-10T05:05:20.919Z,8.03
2022-12-10T05:07:48.393Z,7.70
2022-12-10T05:10:15.960Z,8.20
2022-12-10T05:12:43.390Z,8.33
2022-12-10T05:15:11.170Z,7.70
2022-12-10T05:17:38.563Z,8.47
2022-12-10T05:20:06.534Z,8.53
2022-12-10T05:22:52.841Z,8.83
2022-12-10T05:25:20.302Z,8.80
2022-12-10T05:27:47.677Z,8.50
2022-12-10T05:30:15.008Z,7.87
2022-12-10T05:32:42.384Z,8.67
2022-12-10T05:35:09.924Z,8.70
2022-12-10T05:37:37.301Z,8.17
2022-12-10T05:40:05.673Z,7.60
2022-12-10T05:42:33.279Z,8.57
2022-12-10T05:45:02.045Z,8.83
2022-12-10T05:47:29.481Z,8.37
2022-12-10T05:49:56.861Z,7.97
2022-12-10T05:52:24.197Z,9.23
2022-12-10T05:54:51.582Z,7.40
2022-12-10T05:57:19.028Z,7.87
2022-12-10T05:59:46.366Z,7.90
2022-12-10T06:02:13.680Z,7.87
2022-12-10T06:04:41.118Z,7.50
2022-12-10T06:07:11.338Z,7.80
2022-12-10T06:09:39.040Z,7.80
2022-12-10T06:12:06.678Z,7.60
2022-12-10T06:14:34.081Z,8.10
2022-12-10T06:17:04.236Z,7.17
2022-12-10T06:19:31.719Z,7.03
2022-12-10T06:21:59.596Z,7.57
2022-12-10T06:24:27.118Z,7.37
2022-12-10T06:26:55.774Z,6.37
2022-12-10T06:29:23.360Z,6.10
2022-12-10T06:31:50.637Z,6.37
2022-12-10T06:34:18.087Z,6.83
2022-12-10T06:36:45.516Z,6.23
2022-12-10T06:39:12.919Z,5.97
2022-12-10T06:41:44.799Z,6.20
2022-12-10T06:44:12.401Z,5.67
2022-12-10T06:46:41.262Z,6.03
2022-12-10T06:49:09.559Z,5.93
2022-12-10T06:51:37.046Z,5.87
2022-12-10T06:54:04.437Z,5.50
2022-12-10T06:56:32.159Z,5.40
2022-12-10T06:58:59.499Z,4.97
2022-12-10T07:01:30.106Z,5.60
2022-12-10T07:04:00.239Z,4.93
2022-12-10T07:06:31.718Z,5.77
2022-12-10T07:08:59.192Z,5.40
2022-12-10T07:11:27.158Z,5.60
2022-12-10T07:13:54.637Z,4.60
2022-12-10T07:16:23.671Z,5.13
2022-12-10T07:18:52.776Z,4.97
2022-12-10T07:21:25.204Z,5.20
2022-12-10T07:23:54.847Z,5.33
2022-12-10T07:26:22.638Z,4.77
2022-12-10T07:28:53.501Z,5.30
2022-12-10T07:31:22.701Z,5.90
2022-12-10T07:33:50.886Z,6.13
2022-12-10T07:36:18.266Z,5.90
2022-12-10T07:38:45.639Z,5.50
2022-12-10T07:41:14.200Z,5.73
2022-12-10T07:43:42.560Z,5.50
2022-12-10T07:46:14.434Z,5.77
2022-12-10T07:48:42.738Z,4.40
2022-12-10T07:51:10.115Z,5.87
2022-12-10T07:53:37.961Z,6.13
2022-12-10T07:56:05.538Z,5.70
2022-12-10T07:58:33.111Z,5.10
2022-12-10T08:01:00.501Z,6.13
2022-12-10T08:03:28.037Z,5.47
2022-12-10T08:06:04.719Z,5.60
2022-12-10T08:08:32.306Z,5.00
2022-12-10T08:11:03.361Z,4.50
2022-12-10T08:13:31.172Z,4.33
2022-12-10T08:16:05.383Z,5.00
2022-12-10T08:18:33.399Z,4.33
2022-12-10T08:21:06.760Z,4.77
2022-12-10T08:23:34.598Z,4.47
2022-12-10T08:26:05.877Z,3.83
2022-12-10T08:28:33.420Z,4.53
2022-12-10T08:31:00.908Z,4.70
2022-12-10T08:33:28.283Z,4.37
2022-12-10T08:35:59.763Z,5.27
2022-12-10T08:38:27.399Z,4.60
2022-12-10T08:40:54.841Z,4.70
2022-12-10T08:43:22.559Z,4.40
2022-12-10T08:45:50.104Z,5.27
2022-12-10T08:48:17.683Z,5.20
2022-12-10T08:50:45.078Z,5.67
2022-12-10T08:53:12.478Z,5.63
2022-12-10T08:55:45.907Z,5.17
2022-12-10T08:58:16.167Z,5.27
2022-12-10T09:00:43.599Z,4.70
2022-12-10T09:03:11.317Z,5.50
2022-12-10T09:05:38.883Z,4.70
2022-12-10T09:08:06.460Z,4.50
2022-12-10T09:10:34.000Z,5.17
2022-12-10T09:13:03.363Z,4.30
2022-12-10T09:15:31.119Z,3.73
2022-12-10T09:17:58.659Z,3.97
2022-12-10T09:20:26.087Z,3.93
2022-12-10T09:22:53.381Z,4.37
2022-12-10T09:25:22.603Z,4.20
2022-12-10T09:27:50.442Z,4.27
2022-12-10T09:30:18.118Z,4.27
2022-12-10T09:32:45.671Z,4.67
2022-12-10T09:35:13.189Z,4.00
2022-12-10T09:37:40.527Z,3.37
2022-12-10T09:40:08.419Z,3.83
2022-12-10T09:42:36.313Z,4.20
2022-12-10T09:45:14.713Z,3.73
2022-12-10T09:47:45.593Z,3.70
2022-12-10T09:50:16.222Z,3.90
2022-12-10T09:52:46.767Z,4.50
2022-12-10T09:55:15.801Z,5.37
2022-12-10T09:57:44.598Z,5.17
2022-12-10T10:00:30.279Z,5.83
2022-12-10T10:03:02.071Z,5.00
2022-12-10T10:05:54.714Z,5.53
2022-12-10T10:08:25.626Z,4.70
2022-12-10T10:10:53.320Z,4.53
2022-12-10T10:13:26.680Z,4.40
2022-12-10T10:15:54.480Z,3.93
2022-12-10T10:18:27.557Z,4.37
2022-12-10T10:20:55.337Z,3.80
2022-12-10T10:23:22.760Z,4.10
2022-12-10T10:25:50.278Z,3.80
2022-12-10T10:28:20.637Z,2.93
2022-12-10T10:30:48.090Z,2.93
2022-12-10T10:33:17.161Z,3.23
2022-12-10T10:35:46.720Z,3.00
2022-12-10T10:38:22.001Z,3.00
2022-12-10T10:41:10.439Z,3.00
2022-12-10T10:43:46.003Z,3.00
2022-12-10T10:46:18.514Z,3.50
2022-12-10T10:48:46.521Z,3.53
2022-12-10T10:51:13.916Z,4.27
2022-12-10T10:53:44.726Z,4.60
2022-12-10T10:56:17.774Z,5.00
2022-12-10T10:58:59.600Z,4.40
2022-12-10T11:01:28.197Z,4.30
2022-12-10T11:03:57.322Z,3.90
2022-12-10T11:06:25.080Z,4.50
2022-12-10T11:08:53.682Z,3.57
2022-12-10T11:11:22.402Z,3.97
2022-12-10T11:13:50.242Z,5.53
2022-12-10T11:16:17.663Z,5.10
2022-12-10T11:18:54.080Z,5.23
2022-12-10T11:21:26.080Z,5.03
2022-12-10T11:23:55.203Z,5.37
2022-12-10T11:26:22.520Z,5.73
2022-12-10T11:28:59.752Z,6.07
2022-12-10T11:31:27.109Z,6.33
2022-12-10T11:34:06.520Z,6.30
2022-12-10T11:36:49.300Z,6.87
2022-12-10T11:39:22.963Z,6.60
2022-12-10T11:41:56.559Z,5.93
2022-12-10T11:44:23.922Z,5.63
2022-12-10T11:46:54.199Z,6.70
2022-12-10T11:49:21.589Z,5.37
2022-12-10T11:52:01.361Z,4.67
2022-12-10T11:54:40.722Z,4.73
2022-12-10T11:57:15.079Z,6.17
2022-12-10T12:00:03.877Z,5.70
2022-12-10T12:02:44.992Z,4.73
2022-12-10T12:05:24.520Z,4.80
2022-12-10T12:07:55.053Z,4.20
2022-12-10T12:10:25.483Z,4.60
2022-12-10T12:12:59.558Z,4.47
2022-12-10T12:15:30.458Z,4.13
2022-12-10T12:18:03.001Z,3.60
2022-12-10T12:20:32.563Z,3.60
2022-12-10T12:23:04.359Z,3.77
2022-12-10T12:25:38.161Z,4.83
2022-12-10T12:28:08.322Z,4.03
2022-12-10T12:30:36.819Z,4.90
2022-12-10T12:33:22.803Z,4.40
2022-12-10T12:35:53.730Z,4.77
2022-12-10T12:38:25.604Z,3.97
2022-12-10T12:40:59.997Z,3.73
2022-12-10T12:43:50.643Z,4.13
2022-12-10T12:46:24.265Z,4.53
2022-12-10T12:49:00.723Z,3.47
2022-12-10T12:51:30.931Z,4.47
2022-12-10T12:53:58.387Z,4.23
2022-12-10T12:56:25.629Z,4.50
2022-12-10T12:59:05.054Z,3.43
2022-12-10T13:01:35.563Z,3.80
2022-12-10T13:04:03.878Z,4.33
2022-12-10T13:06:33.061Z,3.70
2022-12-10T13:09:15.667Z,4.30
2022-12-10T13:12:03.242Z,4.17
2022-12-10T13:14:37.000Z,3.17
2022-12-10T13:17:04.322Z,3.97
2022-12-10T13:19:32.680Z,3.87
2022-12-10T13:22:04.797Z,4.10
2022-12-10T13:24:44.320Z,4.50
2022-12-10T13:27:15.795Z,3.97
2022-12-10T13:29:45.718Z,3.57
2022-12-10T13:32:24.361Z,3.73
2022-12-10T13:35:18.046Z,5.83
2022-12-10T13:37:54.091Z,4.07
2022-12-10T13:40:57.679Z,3.80
2022-12-10T13:43:46.399Z,4.33
2022-12-10T13:46:25.507Z,4.50
2022-12-10T13:48:54.467Z,4.57
2022-12-10T13:51:40.276Z,4.60
2022-12-10T13:54:19.119Z,4.53
2022-12-10T13:57:04.840Z,4.20
2022-12-10T13:59:35.117Z,4.70
2022-12-10T14:02:19.838Z,5.27
2022-12-10T14:05:09.920Z,5.00
2022-12-10T14:07:37.377Z,4.40
2022-12-10T14:10:04.908Z,4.10
2022-12-10T14:12:37.204Z,4.00
2022-12-10T14:15:09.200Z,4.07
2022-12-10T14:17:39.120Z,4.50
2022-12-10T14:20:09.072Z,4.80
2022-12-10T14:22:41.032Z,5.57
2022-12-10T14:25:16.183Z,4.50
2022-12-10T14:27:43.541Z,4.77
2022-12-10T14:30:19.821Z,5.30
2022-12-10T14:32:48.037Z,5.17
2022-12-10T14:35:23.162Z,5.47
2022-12-10T14:37:53.115Z,5.73
2022-12-10T14:40:38.997Z,4.97
2022-12-10T14:43:12.517Z,4.67
2022-12-10T14:46:00.095Z,5.40
2022-12-10T14:48:27.477Z,5.57
2022-12-10T14:50:55.283Z,5.27
2022-12-10T14:53:29.084Z,5.10
2022-12-10T14:56:02.357Z,5.27
2022-12-10T14:58:37.164Z,5.17
2022-12-10T15:01:17.462Z,6.20
2022-12-10T15:03:49.224Z,5.93
2022-12-10T15:06:20.640Z,5.47
2022-12-10T15:08:48.762Z,5.80
2022-12-10T15:11:19.917Z,5.23
2022-12-10T15:13:52.482Z,5.57
2022-12-10T15:16:30.230Z,4.83
2022-12-10T15:19:08.640Z,4.90
2022-12-10T15:21:42.317Z,4.27
2022-12-10T15:24:16.002Z,4.47
2022-12-10T15:26:47.158Z,4.30
2022-12-10T15:29:27.670Z,5.37
2022-12-10T15:32:03.161Z,5.47
2022-12-10T15:34:31.409Z,5.40
2022-12-10T15:37:03.397Z,5.10
2022-12-10T15:39:35.956Z,5.10
2022-12-10T15:42:07.199Z,5.30
2022-12-10T15:44:42.830Z,5.00
2022-12-10T15:47:10.369Z,5.30
2022-12-10T15:49:37.728Z,4.53
2022-12-10T15:52:05.556Z,5.40
2022-12-10T15:54:40.121Z,3.97
2022-12-10T15:57:17.520Z,3.80
2022-12-10T15:59:45.845Z,3.37
2022-12-10T16:02:16.052Z,4.10
2022-12-10T16:04:43.477Z,3.97
2022-12-10T16:07:10.918Z,4.23
2022-12-10T16:09:38.717Z,3.60
2022-12-10T16:12:06.044Z,3.87
2022-12-10T16:14:33.484Z,3.73
2022-12-10T16:17:00.998Z,3.97
2022-12-10T16:19:28.440Z,4.10
2022-12-10T16:21:55.805Z,3.80
2022-12-10T16:24:23.237Z,4.53
2022-12-10T16:26:50.684Z,3.87
2022-12-10T16:29:22.388Z,4.10
2022-12-10T16:31:49.867Z,3.93
2022-12-10T16:34:17.309Z,4.17
2022-12-10T16:36:44.715Z,3.90
2022-12-10T16:39:12.905Z,4.17
2022-12-10T16:41:40.559Z,3.87
2022-12-10T16:44:08.238Z,4.43
2022-12-10T16:46:35.747Z,3.83
2022-12-10T16:49:03.518Z,4.57
2022-12-10T16:51:31.803Z,5.17
2022-12-10T16:53:59.159Z,4.47
2022-12-10T16:56:26.603Z,5.37
2022-12-10T16:58:54.073Z,4.87
2022-12-10T17:01:23.881Z,4.77
2022-12-10T17:03:51.977Z,5.57
2022-12-10T17:06:20.116Z,5.00
2022-12-10T17:08:47.562Z,5.53
2022-12-10T17:11:41.197Z,4.80
2022-12-10T17:14:12.655Z,5.20
2022-12-10T17:16:40.075Z,5.40
2022-12-10T17:19:08.076Z,4.80
2022-12-10T17:21:38.579Z,5.10
2022-12-10T17:24:06.681Z,5.00
2022-12-10T17:26:35.599Z,10.30
2022-12-10T17:29:08.682Z,5.07
2022-12-10T17:31:36.558Z,5.03
2022-12-10T17:34:04.074Z,5.03
2022-12-10T17:36:31.503Z,5.10
2022-12-10T17:38:59.045Z,5.07
2022-12-10T17:41:26.398Z,5.00
2022-12-10T17:43:53.758Z,4.37
2022-12-10T17:46:24.358Z,5.10
2022-12-10T17:48:52.197Z,4.57
2022-12-10T17:51:19.719Z,4.63
2022-12-10T17:53:47.118Z,5.00
2022-12-10T17:56:19.687Z,4.50
2022-12-10T17:58:48.210Z,3.80
2022-12-10T18:01:15.963Z,4.33
2022-12-10T18:03:43.681Z,3.93
2022-12-10T18:06:16.319Z,3.90
2022-12-10T18:08:44.036Z,3.40
2022-12-10T18:11:14.359Z,3.93
2022-12-10T18:13:47.452Z,3.87
2022-12-10T18:16:16.291Z,4.83
2022-12-10T18:18:43.640Z,4.37
2022-12-10T18:21:11.797Z,4.77
2022-12-10T18:23:39.157Z,4.97
2022-12-10T18:26:10.320Z,4.37
2022-12-10T18:28:41.763Z,4.70
2022-12-10T18:31:17.533Z,5.30
2022-12-10T18:33:47.081Z,5.43
2022-12-10T18:36:24.476Z,5.47
2022-12-10T18:38:53.130Z,5.20
2022-12-10T18:41:22.478Z,5.40
2022-12-10T18:43:50.674Z,5.20
2022-12-10T18:46:22.728Z,5.60
2022-12-10T18:48:50.521Z,5.20
2022-12-10T18:51:18.200Z,5.30
2022-12-10T18:53:46.282Z,5.57
2022-12-10T18:56:15.482Z,5.63
2022-12-10T18:58:43.441Z,5.60
2022-12-10T19:01:12.071Z,4.90
2022-12-10T19:03:43.394Z,5.57
2022-12-10T19:06:16.080Z,5.97
2022-12-10T19:09:09.998Z,5.80
2022-12-10T19:11:30.959Z,5.97
2022-12-10T19:13:58.640Z,5.20
2022-12-10T19:16:26.509Z,6.13
2022-12-10T19:18:54.445Z,5.57
2022-12-10T19:21:24.599Z,5.50
2022-12-10T19:23:52.027Z,5.67
2022-12-10T19:26:19.599Z,6.27
2022-12-10T19:28:46.959Z,5.93
2022-12-10T19:31:14.376Z,6.27
2022-12-10T19:33:41.802Z,5.57
2022-12-10T19:36:16.903Z,5.67
2022-12-10T19:38:44.304Z,5.47
2022-12-10T19:41:11.904Z,5.67
2022-12-10T19:43:39.396Z,6.80
2022-12-10T19:46:12.573Z,6.50
2022-12-10T19:48:40.014Z,6.73
2022-12-10T19:51:07.604Z,6.50
2022-12-10T19:53:35.005Z,6.07
2022-12-10T19:56:02.543Z,6.93
2022-12-10T19:58:29.844Z,6.57
2022-12-10T20:00:57.234Z,6.57
2022-12-10T20:03:24.604Z,6.70
2022-12-10T20:05:51.958Z,6.20
2022-12-10T20:08:19.408Z,5.73
2022-12-10T20:10:46.997Z,6.67
2022-12-10T20:13:14.378Z,6.53
2022-12-10T20:15:46.922Z,6.20
2022-12-10T20:18:14.553Z,6.47
2022-12-10T20:20:42.036Z,5.63
2022-12-10T20:23:09.399Z,5.63
2022-12-10T20:25:38.119Z,5.77
2022-12-10T20:28:05.676Z,6.27
2022-12-10T20:30:33.082Z,6.77
2022-12-10T20:33:12.031Z,5.37
2022-12-10T20:35:47.840Z,6.10
2022-12-10T20:38:15.926Z,5.53
2022-12-10T20:40:44.480Z,6.00
2022-12-10T20:43:11.840Z,5.20
2022-12-10T20:45:39.221Z,5.90
2022-12-10T20:48:06.560Z,5.27
2022-12-10T20:50:33.879Z,5.33
2022-12-10T20:53:01.239Z,5.80
2022-12-10T20:55:28.885Z,5.47
2022-12-10T20:57:56.298Z,6.20
2022-12-10T21:00:26.849Z,6.10
2022-12-10T21:02:54.222Z,6.00
2022-12-10T21:05:22.000Z,5.57
2022-12-10T21:07:49.433Z,5.67
2022-12-10T21:10:37.356Z,5.90
2022-12-10T21:13:05.518Z,5.57
2022-12-10T21:15:33.669Z,6.10
2022-12-10T21:18:01.319Z,6.13
2022-12-10T21:20:29.582Z,6.20
2022-12-10T21:22:57.205Z,6.17
2022-12-10T21:25:26.783Z,6.40
2022-12-10T21:27:54.045Z,5.73
2022-12-10T21:30:21.451Z,5.87
2022-12-10T21:32:48.880Z,6.27
2022-12-10T21:35:16.178Z,6.30
2022-12-10T21:37:43.898Z,6.93
2022-12-10T21:40:11.557Z,6.60
2022-12-10T21:42:57.480Z,6.80
2022-12-10T21:45:27.508Z,6.63
2022-12-10T21:47:55.526Z,7.57
2022-12-10T21:50:23.032Z,7.17
2022-12-10T21:52:53.008Z,6.83
2022-12-10T21:55:23.084Z,6.40
2022-12-10T21:57:54.120Z,7.47
2022-12-10T22:00:21.750Z,7.50
2022-12-10T22:02:49.199Z,7.40
2022-12-10T22:05:16.688Z,7.47
2022-12-10T22:07:44.082Z,7.63
2022-12-10T22:10:13.819Z,6.60
2022-12-10T22:12:42.202Z,7.80
2022-12-10T22:15:10.419Z,7.03
2022-12-10T22:17:38.057Z,7.30
2022-12-10T22:20:06.359Z,7.40
2022-12-10T22:22:34.323Z,6.83
2022-12-10T22:25:02.137Z,7.43
2022-12-10T22:27:33.313Z,7.33
2022-12-10T22:30:01.078Z,6.90
2022-12-10T22:32:28.839Z,8.10
2022-12-10T22:34:56.319Z,7.07
2022-12-10T22:37:23.918Z,8.07
2022-12-10T22:39:51.319Z,8.27
2022-12-10T22:42:18.756Z,7.80
2022-12-10T22:44:46.116Z,8.57
2022-12-10T22:47:13.642Z,6.93
2022-12-10T22:49:41.001Z,9.03
2022-12-10T22:52:08.385Z,8.03
2022-12-10T22:54:35.721Z,8.20
2022-12-10T22:57:03.166Z,7.97
2022-12-10T22:59:30.551Z,8.97
2022-12-10T23:01:58.809Z,8.23
2022-12-10T23:04:26.281Z,7.63
2022-12-10T23:06:53.819Z,7.87
2022-12-10T23:09:21.240Z,8.93
2022-12-10T23:12:07.602Z,7.60
2022-12-10T23:14:35.370Z,8.30
2022-12-10T23:17:02.877Z,7.53
2022-12-10T23:19:30.960Z,8.57
2022-12-10T23:21:58.514Z,8.03
2022-12-10T23:24:26.003Z,7.53
2022-12-10T23:26:53.362Z,8.33
2022-12-10T23:29:21.038Z,8.50
2022-12-10T23:31:48.444Z,7.83
2022-12-10T23:34:15.842Z,8.27
2022-12-10T23:36:43.200Z,8.03
2022-12-10T23:39:10.678Z,8.07
2022-12-10T23:41:38.005Z,7.67
2022-12-10T23:44:05.565Z,8.00
2022-12-10T23:46:32.927Z,7.77
2022-12-10T23:49:00.279Z,7.70
2022-12-10T23:51:27.637Z,7.57
2022-12-10T23:53:54.997Z,8.27
2022-12-10T23:56:22.356Z,7.77
2022-12-10T23:58:50.042Z,7.30
